createdAt,value
2022-11-03T00:04:34.488Z,42.10
2022-11-03T00:15:01.897Z,40.30
2022-11-03T00:25:29.313Z,30.40
2022-11-03T00:36:00.483Z,35.70
2022-11-03T00:46:30.386Z,31.10
2022-11-03T00:56:58.240Z,28.60
2022-11-03T01:07:25.596Z,58.80
2022-11-03T01:17:52.996Z,50.70
2022-11-03T01:28:20.443Z,40.10
2022-11-03T01:38:48.155Z,32.30
2022-11-03T01:49:19.996Z,37.50
2022-11-03T01:59:49.505Z,39.70
2022-11-03T02:10:17.188Z,24.30
2022-11-03T02:20:47.042Z,30.00
2022-11-03T02:31:17.902Z,25.80
2022-11-03T02:41:48.085Z,22.80
2022-11-03T02:52:42.516Z,24.00
2022-11-03T03:03:18.171Z,28.10
2022-11-03T03:13:46.693Z,25.80
2022-11-03T03:34:47.829Z,31.00
2022-11-03T03:45:16.195Z,33.60
2022-11-03T03:55:46.434Z,36.10
2022-11-03T04:06:13.846Z,27.40
2022-11-03T04:16:58.954Z,31.30
2022-11-03T04:27:34.315Z,30.90
2022-11-03T04:38:06.445Z,29.50
2022-11-03T04:48:35.012Z,31.30
2022-11-03T04:59:02.581Z,34.10
2022-11-03T05:09:32.852Z,33.50
2022-11-03T05:20:03.448Z,29.00
2022-11-03T05:30:30.909Z,28.90
2022-11-03T05:40:58.800Z,34.90
2022-11-03T05:51:33.580Z,50.80
2022-11-03T06:02:02.847Z,44.30
2022-11-03T06:12:32.464Z,34.30
2022-11-03T06:23:01.934Z,30.60
2022-11-03T06:33:31.596Z,28.10
2022-11-03T06:43:59.448Z,33.00
2022-11-03T06:54:27.099Z,25.80
2022-11-03T07:04:54.471Z,29.50
2022-11-03T07:15:30.527Z,25.90
2022-11-03T07:26:01.327Z,31.80
2022-11-03T07:36:32.602Z,27.10
2022-11-03T07:47:00.052Z,23.90
2022-11-03T07:57:30.690Z,21.60
2022-11-03T08:07:58.091Z,20.10
2022-11-03T08:18:25.614Z,19.60
2022-11-03T08:28:53.249Z,25.30
2022-11-03T08:39:20.758Z,27.30
2022-11-03T08:49:48.128Z,31.70
2022-11-03T09:00:18.136Z,21.70
2022-11-03T09:10:45.792Z,23.40
2022-11-03T09:21:13.718Z,16.70
2022-11-03T09:31:41.150Z,13.60
2022-11-03T09:42:09.274Z,14.40
2022-11-03T10:13:38.068Z,14.20
2022-11-03T10:24:05.676Z,11.10
2022-11-03T10:34:42.494Z,14.10
2022-11-03T10:45:17.443Z,13.90
2022-11-03T10:55:45.074Z,10.60
2022-11-03T11:06:22.519Z,7.70
2022-11-03T11:16:54.303Z,9.60
2022-11-03T11:27:58.583Z,8.20
2022-11-03T11:39:06.076Z,8.60
2022-11-03T11:49:33.652Z,8.20
2022-11-03T12:00:01.276Z,6.50
2022-11-03T12:10:31.335Z,14.50
2022-11-03T12:20:59.189Z,5.70
2022-11-03T12:31:26.807Z,4.60
2022-11-03T12:41:54.245Z,8.10
2022-11-03T12:52:21.632Z,8.50
2022-11-03T13:02:49.160Z,5.60
2022-11-03T13:13:16.757Z,6.10
2022-11-03T13:23:44.275Z,5.50
2022-11-03T13:34:11.659Z,7.80
2022-11-03T13:44:39.044Z,7.10
2022-11-03T14:05:54.620Z,8.20
2022-11-03T14:16:22.127Z,5.90
2022-11-03T14:26:49.811Z,6.10
2022-11-03T14:37:17.309Z,5.00
2022-11-03T14:47:45.020Z,6.20
2022-11-03T14:58:12.391Z,6.80
2022-11-03T15:08:39.801Z,8.60
2022-11-03T15:19:08.768Z,5.20
2022-11-03T15:29:37.599Z,9.80
2022-11-03T15:40:05.737Z,7.70
2022-11-03T16:00:59.095Z,11.90
2022-11-03T16:11:26.488Z,14.80
2022-11-03T16:21:53.825Z,11.00
2022-11-03T16:32:21.192Z,15.10
2022-11-03T16:42:48.807Z,12.10
2022-11-03T16:53:16.274Z,13.50
2022-11-03T17:03:43.864Z,15.90
2022-11-03T17:14:13.848Z,12.30
2022-11-03T17:24:41.542Z,14.50
2022-11-03T17:35:17.055Z,13.00
2022-11-03T17:45:45.257Z,9.80
2022-11-03T18:06:58.071Z,15.20
2022-11-03T18:17:25.488Z,15.90
2022-11-03T18:27:53.055Z,16.60
2022-11-03T18:38:22.497Z,15.80
2022-11-03T18:48:49.922Z,18.60
2022-11-03T18:59:22.465Z,15.80
2022-11-03T19:09:50.189Z,16.90
2022-11-03T19:20:19.407Z,14.00
2022-11-03T19:30:46.970Z,15.40
2022-11-03T19:41:36.055Z,14.90
2022-11-03T19:52:03.709Z,18.80
2022-11-03T20:02:31.260Z,14.40
2022-11-03T20:12:59.896Z,15.00
2022-11-03T20:23:30.702Z,20.50
2022-11-03T20:33:58.087Z,19.00
2022-11-03T20:44:25.619Z,15.90
2022-11-03T20:54:55.021Z,18.10
2022-11-03T21:05:24.566Z,21.00
2022-11-03T21:16:24.583Z,19.30
2022-11-03T21:26:52.466Z,18.10
2022-11-03T21:37:19.972Z,19.70
2022-11-03T21:48:13.211Z,17.80
2022-11-03T21:58:41.200Z,16.50
2022-11-03T22:09:08.720Z,19.90
2022-11-03T22:19:53.436Z,19.60
2022-11-03T22:30:37.968Z,22.60
2022-11-03T22:41:23.018Z,23.00
2022-11-03T22:51:50.405Z,26.60
2022-11-03T23:02:17.956Z,21.30
2022-11-03T23:12:45.425Z,24.40
2022-11-03T23:23:32.916Z,18.70
2022-11-03T23:34:01.622Z,19.40
2022-11-03T23:44:49.075Z,23.50
2022-11-03T23:55:16.670Z,20.70
